Time;durP1;ratioP1;P1;durP2;ratioP2;P2;SDS_P1;SDS_P2;PMS_P1;PMS_P2;Temp;Humidity;BMP_temperature;BMP_pressure;BME280_temperature;BME280_humidity;BME280_pressure;Samples;Min_cycle;Max_cycle;Signal;HPM_P1;HPM_P2
2022/04/09 00:02:07;;;;;;;62.97;58.73;;;;;;;6.89;100.00;100994.31;1998670;71;32741;-70
2022/04/09 00:07:51;;;;;;;62.20;57.97;;;;;;;6.70;100.00;101009.54;2004164;71;32805;-78
2022/04/09 00:13:35;;;;;;;61.40;57.13;;;;;;;6.45;100.00;101027.97;2010999;70;32923;-78
2022/04/09 00:19:20;;;;;;;61.47;57.23;;;;;;;6.36;100.00;101035.84;2000460;71;32744;-78
2022/04/09 00:25:06;;;;;;;62.40;58.07;;;;;;;6.34;100.00;101032.48;2024263;70;33206;-73
2022/04/09 00:30:50;;;;;;;64.13;59.73;;;;;;;6.36;100.00;101044.11;2011756;71;32935;-70
2022/04/09 00:36:34;;;;;;;63.23;58.93;;;;;;;6.46;100.00;101050.30;2013147;71;32805;-71
2022/04/09 00:42:21;;;;;;;64.47;60.17;;;;;;;6.55;100.00;101063.13;2016565;71;32804;-71
2022/04/09 00:48:09;;;;;;;63.27;59.17;;;;;;;6.23;100.00;101068.45;1994700;71;32849;-69
2022/04/09 00:53:55;;;;;;;64.33;60.33;;;;;;;6.09;100.00;101070.70;2018881;71;32967;-80
2022/04/09 00:59:40;;;;;;;65.17;61.07;;;;;;;5.94;100.00;101068.53;2000633;71;33261;-70
2022/04/09 01:05:26;;;;;;;65.97;61.77;;;;;;;5.96;100.00;101087.56;2015100;71;33359;-72
2022/04/09 01:11:12;;;;;;;64.67;60.57;;;;;;;5.88;100.00;101083.30;2013030;71;33362;-70
2022/04/09 01:16:57;;;;;;;65.60;61.60;;;;;;;5.53;100.00;101101.89;2007790;71;32882;-78
2022/04/09 01:22:42;;;;;;;63.27;59.30;;;;;;;5.70;100.00;101115.71;2013624;71;32887;-78
2022/04/09 01:28:27;;;;;;;65.80;61.90;;;;;;;5.67;100.00;101118.97;2014873;71;32862;-78
2022/04/09 01:34:14;;;;;;;63.23;59.33;;;;;;;5.61;100.00;101129.05;2015433;71;33339;-74
2022/04/09 01:39:58;;;;;;;62.83;59.03;;;;;;;5.66;100.00;101138.80;2000768;71;32796;-70
2022/04/09 01:45:43;;;;;;;64.07;59.87;;;;;;;5.61;100.00;101144.20;1991456;71;32915;-78
2022/04/09 01:51:28;;;;;;;65.70;61.70;;;;;;;5.61;100.00;101144.73;1998535;71;32798;-74
2022/04/09 01:57:13;;;;;;;65.37;61.17;;;;;;;5.59;100.00;101152.43;2009663;71;33414;-80
2022/04/09 02:02:57;;;;;;;65.83;61.73;;;;;;;5.54;100.00;101157.30;2014597;71;32979;-78
2022/04/09 02:08:42;;;;;;;66.87;62.57;;;;;;;5.42;100.00;101160.09;2018677;71;32803;-73
2022/04/09 02:14:26;;;;;;;67.33;62.93;;;;;;;5.38;100.00;101175.44;2012955;71;33444;-78
2022/04/09 02:20:12;;;;;;;70.83;66.40;;;;;;;5.38;100.00;101177.35;2014979;71;32978;-69
2022/04/09 02:25:57;;;;;;;66.97;62.57;;;;;;;5.47;100.00;101189.67;2003752;71;32804;-69
2022/04/09 02:31:41;;;;;;;67.40;62.90;;;;;;;5.18;100.00;101204.45;2016801;71;32901;-70
2022/04/09 02:37:26;;;;;;;72.10;67.50;;;;;;;5.22;100.00;101209.78;2007893;71;32956;-77
2022/04/09 02:43:10;;;;;;;72.90;68.10;;;;;;;5.21;100.00;101213.06;2006276;71;32835;-70
2022/04/09 02:48:55;;;;;;;68.63;64.10;;;;;;;4.98;100.00;101207.03;1991723;71;32773;-76
2022/04/09 02:54:39;;;;;;;70.37;65.77;;;;;;;5.12;100.00;101208.16;1996601;71;32779;-79
2022/04/09 03:00:23;;;;;;;69.73;65.20;;;;;;;4.99;100.00;101210.09;1995432;71;33255;-73
2022/04/09 03:06:07;;;;;;;66.57;62.07;;;;;;;4.99;100.00;101218.34;2001063;71;32762;-76
2022/04/09 03:11:50;;;;;;;67.07;62.57;;;;;;;4.96;100.00;101229.00;2000539;71;32756;-79
2022/04/09 03:17:34;;;;;;;69.40;64.60;;;;;;;4.85;100.00;101229.81;2005354;71;33004;-70
2022/04/09 03:23:19;;;;;;;68.93;64.03;;;;;;;4.66;100.00;101239.27;2009339;71;32926;-70
2022/04/09 03:29:03;;;;;;;69.50;64.60;;;;;;;4.79;100.00;101243.17;2013525;71;32907;-78
2022/04/09 03:34:48;;;;;;;70.07;65.40;;;;;;;4.53;100.00;101255.45;2000873;71;32821;-74
2022/04/09 03:40:32;;;;;;;71.40;66.50;;;;;;;4.59;100.00;101269.08;2007808;71;32968;-77
2022/04/09 03:46:16;;;;;;;70.03;65.17;;;;;;;4.59;100.00;101267.70;2011528;71;33285;-78
2022/04/09 03:52:00;;;;;;;70.70;65.80;;;;;;;4.52;100.00;101280.73;2006078;71;32761;-78
2022/04/09 03:57:45;;;;;;;69.83;64.93;;;;;;;4.59;100.00;101297.13;1994444;71;32906;-70
2022/04/09 04:03:31;;;;;;;68.67;63.97;;;;;;;4.55;100.00;101303.64;2000459;71;32775;-70
2022/04/09 04:09:16;;;;;;;68.93;64.13;;;;;;;4.65;100.00;101297.58;2000938;71;32763;-77
2022/04/09 04:15:01;;;;;;;73.73;68.73;;;;;;;4.62;100.00;101301.34;1999872;71;33287;-77
2022/04/09 04:20:54;;;;;;;67.87;63.27;;;;;;;4.57;100.00;101317.17;1991855;71;33240;-74
2022/04/09 04:26:38;;;;;;;69.57;64.87;;;;;;;4.50;100.00;101320.53;1998727;71;32779;-70
2022/04/09 04:32:22;;;;;;;70.70;65.90;;;;;;;4.29;100.00;101316.39;2007453;71;32831;-71
2022/04/09 04:38:07;;;;;;;71.10;66.23;;;;;;;4.23;100.00;101324.21;2010800;71;33298;-78
2022/04/09 04:43:52;;;;;;;71.53;66.63;;;;;;;4.12;100.00;101329.94;2006409;71;32783;-77
2022/04/09 04:49:36;;;;;;;70.73;65.50;;;;;;;4.02;100.00;101332.38;2000858;71;32800;-76
2022/04/09 04:55:22;;;;;;;70.87;65.60;;;;;;;4.03;100.00;101337.35;1998643;71;32936;-78
2022/04/09 05:01:07;;;;;;;71.47;66.63;;;;;;;3.96;100.00;101353.09;2000941;71;32766;-76
2022/04/09 05:06:52;;;;;;;68.13;63.30;;;;;;;3.94;100.00;101358.81;1995616;71;33305;-77
2022/04/09 05:12:36;;;;;;;67.93;63.20;;;;;;;3.87;100.00;101380.57;2002492;71;32835;-73
2022/04/09 05:18:21;;;;;;;69.13;64.40;;;;;;;3.83;100.00;101381.56;2007760;71;32804;-70
2022/04/09 05:24:09;;;;;;;68.83;63.87;;;;;;;3.90;100.00;101387.82;2010135;71;32893;-78
2022/04/09 05:29:54;;;;;;;68.20;63.30;;;;;;;3.98;100.00;101403.19;2014653;71;33491;-70
2022/04/09 05:35:38;;;;;;;69.83;65.20;;;;;;;3.81;100.00;101412.53;2006015;71;32837;-76
2022/04/09 05:41:22;;;;;;;66.47;61.73;;;;;;;3.62;100.00;101409.47;2007948;71;32848;-73
2022/04/09 05:47:07;;;;;;;66.83;62.23;;;;;;;3.75;100.00;101426.36;2007259;71;32897;-77
2022/04/09 05:52:53;;;;;;;69.40;64.37;;;;;;;3.88;100.00;101431.20;1994598;71;32888;-76
2022/04/09 05:58:41;;;;;;;67.53;62.73;;;;;;;3.81;100.00;101429.02;2017032;71;33427;-76
2022/04/09 06:04:24;;;;;;;68.33;63.70;;;;;;;4.01;100.00;101433.80;1997277;71;33351;-77
2022/04/09 06:10:12;;;;;;;66.13;61.83;;;;;;;4.08;100.00;101446.09;2013568;71;32814;-76
2022/04/09 06:15:56;;;;;;;69.90;65.20;;;;;;;4.15;100.00;101448.22;2018353;71;33370;-69
2022/04/09 06:21:40;;;;;;;66.13;61.77;;;;;;;4.20;100.00;101455.78;2011280;71;33426;-69
2022/04/09 06:27:24;;;;;;;68.57;64.03;;;;;;;4.20;100.00;101460.75;2000371;71;32760;-70
2022/04/09 06:33:09;;;;;;;69.17;64.67;;;;;;;4.24;100.00;101461.97;2016482;71;32815;-76
2022/04/09 06:38:53;;;;;;;66.80;62.60;;;;;;;4.35;100.00;101476.36;2009651;71;32801;-74
2022/04/09 06:44:38;;;;;;;64.63;60.40;;;;;;;4.45;100.00;101479.95;2002256;71;32808;-75
2022/04/09 06:50:22;;;;;;;68.07;63.67;;;;;;;4.52;100.00;101493.09;1995492;71;33317;-73
2022/04/09 06:56:07;;;;;;;65.53;61.23;;;;;;;4.70;100.00;101498.59;1988920;71;32844;-76
2022/04/09 07:01:52;;;;;;;65.47;61.30;;;;;;;4.86;100.00;101502.61;2014721;71;32956;-72
2022/04/09 07:07:36;;;;;;;63.10;59.00;;;;;;;4.94;100.00;101504.50;2012908;71;32863;-70
2022/04/09 07:13:22;;;;;;;63.27;59.33;;;;;;;5.01;100.00;101508.00;2009567;71;32793;-72
2022/04/09 07:19:08;;;;;;;61.30;57.50;;;;;;;5.25;100.00;101521.87;2014719;71;32997;-75
2022/04/09 07:24:53;;;;;;;61.90;58.13;;;;;;;5.34;100.00;101525.45;2000641;71;32750;-75
2022/04/09 07:30:37;;;;;;;63.23;59.23;;;;;;;5.64;100.00;101526.80;1997909;71;32931;-70
2022/04/09 07:36:21;;;;;;;59.30;55.70;;;;;;;5.80;100.00;101536.28;2011209;71;33262;-77
2022/04/09 07:42:07;;;;;;;60.63;56.87;;;;;;;6.22;100.00;101526.88;2016481;71;32800;-76
2022/04/09 07:47:55;;;;;;;57.20;53.80;;;;;;;6.50;100.00;101543.25;2002102;71;33362;-71
2022/04/09 07:53:40;;;;;;;53.90;50.80;;;;;;;6.98;100.00;101546.50;2009512;71;33288;-76
2022/04/09 07:59:24;;;;;;;53.63;50.53;;;;;;;6.84;100.00;101542.36;2014874;71;32927;-71
2022/04/09 08:05:10;;;;;;;53.50;50.20;;;;;;;7.28;100.00;101552.65;2012772;71;32923;-70
2022/04/09 08:10:55;;;;;;;48.37;45.47;;;;;;;7.53;100.00;101558.39;2004562;71;33303;-73
2022/04/09 08:16:39;;;;;;;47.77;44.93;;;;;;;7.55;100.00;101557.05;2016707;71;33449;-72
2022/04/09 08:22:25;;;;;;;48.30;45.63;;;;;;;7.93;100.00;101562.41;2016631;71;33283;-71
2022/04/09 08:28:09;;;;;;;44.87;42.37;;;;;;;7.79;100.00;101572.41;2014627;71;32840;-72
2022/04/09 08:33:54;;;;;;;48.10;45.30;;;;;;;7.77;100.00;101575.14;2000546;71;32775;-74
2022/04/09 08:39:38;;;;;;;48.37;45.57;;;;;;;8.34;100.00;101569.50;2011352;71;32964;-73
2022/04/09 08:45:23;;;;;;;43.43;40.97;;;;;;;8.72;100.00;101572.30;2012961;71;33264;-73
2022/04/09 08:51:07;;;;;;;44.23;41.63;;;;;;;8.58;100.00;101569.05;2016429;71;32893;-73
2022/04/09 08:56:52;;;;;;;49.47;46.67;;;;;;;9.05;100.00;101576.89;1979899;72;33074;-74
2022/04/09 09:02:40;;;;;;;37.27;34.87;;;;;;;9.37;100.00;101575.05;2004397;71;33287;-70
2022/04/09 09:08:38;;;;;;;34.47;32.20;;;;;;;9.31;100.00;101580.81;2000491;71;32735;-73
2022/04/09 09:14:30;;;;;;;29.10;27.40;;;;;;;9.74;100.00;101583.52;2012856;71;33348;-73
2022/04/09 09:20:15;;;;;;;26.60;25.10;;;;;;;9.75;100.00;101582.44;2014845;71;32887;-77
2022/04/09 09:26:03;;;;;;;24.67;23.17;;;;;;;10.19;100.00;101578.12;1991201;71;32815;-78
2022/04/09 09:31:50;;;;;;;24.70;23.17;;;;;;;9.56;100.00;101590.27;2003556;71;32959;-77
2022/04/09 09:37:35;;;;;;;20.07;18.93;;;;;;;10.03;100.00;101589.63;2016420;71;32822;-77
2022/04/09 09:43:22;;;;;;;20.37;18.87;;;;;;;9.70;100.00;101587.92;2000133;71;32937;-77
2022/04/09 09:49:07;;;;;;;19.73;18.43;;;;;;;10.04;100.00;101590.77;2014711;71;33403;-78
2022/04/09 09:55:04;;;;;;;16.77;15.63;;;;;;;10.60;100.00;101590.40;2002489;71;33295;-73
2022/04/09 10:00:49;;;;;;;18.03;17.03;;;;;;;10.50;100.00;101598.10;2007404;71;32841;-77
2022/04/09 10:06:36;;;;;;;15.63;14.73;;;;;;;10.21;100.00;101603.70;1998748;71;33249;-77
2022/04/09 10:12:23;;;;;;;14.50;13.60;;;;;;;11.16;100.00;101602.68;2018292;71;32842;-73
2022/04/09 10:14:55;;;;;;;14.13;13.27;;;;;;;10.60;100.00;101612.08;1975282;72;26266;-73
2022/04/09 10:20:44;;;;;;;12.40;11.80;;;;;;;10.90;100.00;101601.71;1994670;71;32826;-73
2022/04/09 10:26:29;;;;;;;11.50;10.90;;;;;;;10.83;100.00;101607.49;2014658;71;33274;-77
2022/04/09 10:32:43;;;;;;;12.40;11.60;;;;;;;10.51;100.00;101615.06;2008009;71;32756;-73
2022/04/09 10:38:49;;;;;;;10.70;10.00;;;;;;;11.09;100.00;101605.69;2007435;71;32967;-77
2022/04/09 10:44:57;;;;;;;12.00;11.30;;;;;;;10.61;100.00;101623.45;2003576;71;33376;-77
2022/04/09 10:51:04;;;;;;;11.07;10.43;;;;;;;11.32;100.00;101614.16;2007907;71;32851;-77
2022/04/09 10:56:49;;;;;;;11.23;10.63;;;;;;;10.93;100.00;101611.73;1979963;72;33411;-73
2022/04/09 11:03:04;;;;;;;11.63;10.83;;;;;;;10.94;100.00;101609.80;2003820;71;32831;-73
2022/04/09 11:09:00;;;;;;;11.20;10.60;;;;;;;11.49;100.00;101605.59;2009368;71;33265;-73
2022/04/09 11:14:47;;;;;;;11.33;10.50;;;;;;;11.46;100.00;101615.33;1998292;71;32900;-76
2022/04/09 11:20:53;;;;;;;11.30;10.50;;;;;;;10.93;100.00;101616.45;2002420;71;33238;-76
2022/04/09 11:26:37;;;;;;;11.13;10.50;;;;;;;10.82;100.00;101623.91;2004142;71;33269;-73
2022/04/09 11:32:28;;;;;;;11.17;10.50;;;;;;;10.78;100.00;101619.15;2006002;71;33240;-73
2022/04/09 11:38:13;;;;;;;11.10;10.50;;;;;;;11.35;100.00;101614.44;2007957;71;33334;-72
2022/04/09 11:44:00;;;;;;;15.70;15.00;;;;;;;11.50;100.00;101609.50;2000317;71;32812;-73
2022/04/09 11:49:47;;;;;;;10.80;10.30;;;;;;;11.93;100.00;101614.38;2010660;71;32839;-73
2022/04/09 11:55:42;;;;;;;11.63;10.93;;;;;;;11.89;100.00;101614.66;2008931;71;32826;-77
2022/04/09 12:01:27;;;;;;;10.67;10.00;;;;;;;12.02;100.00;101614.12;2014655;70;32816;-73
2022/04/09 12:07:16;;;;;;;11.10;10.30;;;;;;;11.40;100.00;101621.97;2006408;71;32847;-72
2022/04/09 12:13:02;;;;;;;11.80;11.10;;;;;;;10.99;100.00;101629.29;2016489;71;32864;-72
2022/04/09 12:18:48;;;;;;;11.93;11.30;;;;;;;11.47;100.00;101630.89;2006143;71;32892;-77
2022/04/09 12:24:46;;;;;;;11.80;11.00;;;;;;;11.63;100.00;101642.94;2001947;71;33353;-77
2022/04/09 12:30:44;;;;;;;11.67;11.03;;;;;;;10.80;100.00;101578.86;1886586;70;33136;-77
2022/04/09 12:36:29;;;;;;;11.90;11.20;;;;;;;11.55;100.00;101644.27;2016399;71;32810;-73
2022/04/09 12:42:15;;;;;;;11.70;11.00;;;;;;;11.95;100.00;101644.16;2014705;71;33367;-72
2022/04/09 12:48:01;;;;;;;12.07;11.40;;;;;;;12.16;100.00;101655.61;2007439;71;32877;-77
2022/04/09 12:53:49;;;;;;;11.67;10.97;;;;;;;12.27;100.00;101651.74;2009438;71;33353;-72
2022/04/09 12:59:34;;;;;;;12.63;11.73;;;;;;;12.79;100.00;101648.68;1998399;71;32820;-77
2022/04/09 13:05:19;;;;;;;11.47;10.77;;;;;;;12.71;100.00;101657.03;2010983;71;32944;-77
2022/04/09 13:11:07;;;;;;;11.37;10.80;;;;;;;12.02;100.00;101648.38;2003971;71;33279;-73
2022/04/09 13:16:52;;;;;;;11.40;10.80;;;;;;;11.47;100.00;101659.30;1996880;71;33278;-73
2022/04/09 13:22:37;;;;;;;11.67;11.13;;;;;;;11.95;100.00;101654.73;1999948;71;33323;-77
2022/04/09 13:28:26;;;;;;;11.77;11.17;;;;;;;12.51;100.00;101658.44;2006058;71;32811;-77
2022/04/09 13:34:14;;;;;;;11.10;10.60;;;;;;;12.18;100.00;101654.80;2014607;71;32825;-72
2022/04/09 13:39:57;;;;;;;10.83;10.23;;;;;;;11.71;100.00;101652.98;1996873;71;33270;-73
2022/04/09 13:45:42;;;;;;;11.60;10.73;;;;;;;11.75;100.00;101651.91;2005041;70;33382;-73
2022/04/09 13:51:26;;;;;;;11.80;11.00;;;;;;;12.48;100.00;101642.83;2009063;71;32885;-77
2022/04/09 13:57:10;;;;;;;10.97;10.43;;;;;;;13.01;100.00;101637.19;1963366;72;32910;-73
2022/04/09 14:02:54;;;;;;;11.33;10.73;;;;;;;12.51;100.00;101626.39;2007502;71;32853;-77
2022/04/09 14:08:40;;;;;;;11.93;11.33;;;;;;;12.01;100.00;101637.50;1998351;71;32879;-77
2022/04/09 14:14:25;;;;;;;11.30;10.70;;;;;;;12.41;98.85;101626.37;1995256;71;32859;-72
2022/04/09 14:20:12;;;;;;;11.10;10.60;;;;;;;12.28;99.58;101637.52;2016471;71;33279;-73
2022/04/09 14:25:57;;;;;;;11.90;11.20;;;;;;;12.00;99.06;101642.78;2007435;71;33259;-77
2022/04/09 14:31:41;;;;;;;11.70;11.10;;;;;;;11.61;100.00;101650.16;1991305;71;32754;-72
2022/04/09 14:37:27;;;;;;;11.50;11.00;;;;;;;11.49;100.00;101645.93;2000627;71;32753;-77
2022/04/09 14:43:11;;;;;;;10.30;9.83;;;;;;;11.37;100.00;101645.62;2005733;71;32819;-77
2022/04/09 14:48:55;;;;;;;10.77;10.17;;;;;;;11.47;100.00;101642.60;1991376;71;33191;-77
2022/04/09 14:54:40;;;;;;;11.27;10.67;;;;;;;11.49;100.00;101643.99;2016628;71;32861;-73
2022/04/09 15:00:24;;;;;;;11.07;10.43;;;;;;;12.05;98.58;101640.01;2018282;71;32819;-77
2022/04/09 15:06:08;;;;;;;11.07;10.47;;;;;;;12.35;94.36;101633.08;2012752;71;32931;-73
2022/04/09 15:11:54;;;;;;;11.30;10.80;;;;;;;12.59;89.00;101629.16;2000329;71;32764;-71
2022/04/09 15:17:38;;;;;;;11.13;10.63;;;;;;;12.87;81.26;101617.44;1998702;71;32831;-77
2022/04/09 15:23:24;;;;;;;10.83;10.23;;;;;;;13.20;88.56;101620.16;2006095;71;33355;-73
2022/04/09 15:29:09;;;;;;;11.60;11.00;;;;;;;12.90;84.59;101633.59;1991297;71;32818;-72
2022/04/09 15:34:54;;;;;;;11.53;10.97;;;;;;;12.55;84.58;101643.37;2009164;71;32876;-77
2022/04/09 15:40:39;;;;;;;12.03;11.43;;;;;;;12.62;88.93;101638.38;2005013;71;32815;-76
2022/04/09 15:46:23;;;;;;;11.50;11.00;;;;;;;12.80;87.52;101626.63;2016835;70;32946;-72
2022/04/09 15:52:08;;;;;;;11.77;11.17;;;;;;;12.84;87.18;101632.47;2007372;71;33309;-77
2022/04/09 15:57:54;;;;;;;11.00;10.50;;;;;;;12.90;89.31;101627.17;2009035;71;32815;-73
2022/04/09 16:03:38;;;;;;;11.63;11.03;;;;;;;12.42;90.13;101547.80;1909182;70;33052;-72
2022/04/09 16:09:25;;;;;;;11.77;11.10;;;;;;;12.45;90.98;101623.31;2008375;71;32806;-73
2022/04/09 16:15:11;;;;;;;11.30;10.80;;;;;;;12.46;93.08;101631.11;2003727;71;32914;-71
2022/04/09 16:20:57;;;;;;;13.33;12.43;;;;;;;12.32;87.27;101638.63;2014497;71;33011;-73
2022/04/09 16:26:44;;;;;;;14.20;13.20;;;;;;;12.21;86.24;101638.91;2016433;71;32964;-72
2022/04/09 16:32:29;;;;;;;12.63;11.93;;;;;;;12.29;92.04;101647.55;2014663;71;32844;-77
2022/04/09 16:38:13;;;;;;;11.37;10.87;;;;;;;12.20;88.64;101639.47;2016498;71;32820;-77
2022/04/09 16:43:57;;;;;;;11.70;11.00;;;;;;;12.21;91.92;101641.14;2007954;71;32822;-77
2022/04/09 16:49:44;;;;;;;11.37;10.80;;;;;;;12.28;94.81;101650.61;2012791;71;32824;-73
2022/04/09 16:55:31;;;;;;;11.73;11.03;;;;;;;12.17;87.87;101642.81;2016735;71;33542;-77
2022/04/09 17:01:17;;;;;;;11.40;10.90;;;;;;;12.24;89.43;101643.37;1996907;71;32749;-77
2022/04/09 17:07:00;;;;;;;11.63;10.93;;;;;;;12.17;88.42;101647.55;1997001;71;32742;-75
2022/04/09 17:12:44;;;;;;;11.80;11.10;;;;;;;12.11;90.26;101656.44;1997260;71;32809;-70
2022/04/09 17:18:29;;;;;;;11.20;10.70;;;;;;;11.96;90.78;101655.03;2009503;71;33307;-71
2022/04/09 17:24:13;;;;;;;11.63;10.83;;;;;;;11.93;92.17;101660.31;1995249;71;32840;-75
2022/04/09 17:30:00;;;;;;;12.60;11.90;;;;;;;11.86;91.13;101656.38;2011303;71;33408;-75
2022/04/09 17:35:44;;;;;;;12.00;11.40;;;;;;;12.03;90.36;101663.94;2016579;71;32942;-75
2022/04/09 17:41:28;;;;;;;12.00;11.40;;;;;;;12.07;90.01;101667.01;2005774;71;33276;-74
2022/04/09 17:47:12;;;;;;;11.90;11.30;;;;;;;12.05;89.74;101669.25;2016428;71;32896;-76
2022/04/09 17:52:57;;;;;;;11.27;10.73;;;;;;;11.89;90.33;101675.89;2005792;71;33010;-70
2022/04/09 17:58:41;;;;;;;11.03;10.43;;;;;;;11.82;93.96;101681.70;2013053;71;32810;-71
2022/04/09 18:04:25;;;;;;;11.70;11.00;;;;;;;11.77;95.74;101686.70;1994845;71;32994;-75
2022/04/09 18:10:10;;;;;;;11.33;10.73;;;;;;;11.68;94.92;101691.08;2003857;71;32863;-74
2022/04/09 18:15:56;;;;;;;11.00;10.50;;;;;;;11.46;98.18;101692.39;2007940;71;32745;-71
2022/04/09 18:21:40;;;;;;;12.10;11.30;;;;;;;11.29;100.00;101698.14;2000651;71;32824;-70
2022/04/09 18:27:24;;;;;;;11.90;11.30;;;;;;;11.10;100.00;101697.73;2013004;71;33312;-70
2022/04/09 18:33:10;;;;;;;12.23;11.43;;;;;;;10.87;100.00;101696.73;2016411;71;33014;-70
2022/04/09 18:38:56;;;;;;;12.13;11.53;;;;;;;10.84;100.00;101712.55;2006328;71;32889;-75
2022/04/09 18:44:41;;;;;;;12.07;11.30;;;;;;;10.84;100.00;101723.12;2012343;71;32832;-78
2022/04/09 18:50:25;;;;;;;11.33;10.63;;;;;;;10.96;100.00;101726.55;2000237;71;32811;-76
2022/04/09 18:56:09;;;;;;;12.10;11.50;;;;;;;11.00;100.00;101734.34;2009865;71;32763;-71
2022/04/09 19:01:53;;;;;;;12.20;11.50;;;;;;;10.86;100.00;101745.11;2002608;71;33305;-72
2022/04/09 19:07:38;;;;;;;12.03;11.33;;;;;;;10.69;100.00;101757.75;2002008;71;32876;-71
2022/04/09 19:13:23;;;;;;;12.10;11.40;;;;;;;10.58;100.00;101764.84;2009966;71;32805;-71
2022/04/09 19:19:09;;;;;;;12.97;12.27;;;;;;;10.69;100.00;101778.59;2013355;71;32963;-76
2022/04/09 19:24:53;;;;;;;12.17;11.57;;;;;;;10.65;100.00;101778.83;2014808;71;33299;-75
2022/04/09 19:30:38;;;;;;;13.90;13.00;;;;;;;10.67;100.00;101785.48;2009887;71;32780;-74
2022/04/09 19:36:22;;;;;;;14.50;13.60;;;;;;;10.68;100.00;101793.58;2006056;71;32759;-74
2022/04/09 19:42:07;;;;;;;14.30;13.30;;;;;;;10.63;100.00;101797.69;1994666;71;32878;-71
2022/04/09 19:47:52;;;;;;;13.17;12.37;;;;;;;10.56;100.00;101808.18;1997076;71;33411;-71
2022/04/09 19:53:39;;;;;;;13.73;12.83;;;;;;;10.45;100.00;101804.98;2005553;71;33078;-69
2022/04/09 19:59:25;;;;;;;12.90;12.20;;;;;;;10.08;100.00;101804.81;1991909;71;32764;-74
2022/04/09 20:05:10;;;;;;;12.90;12.20;;;;;;;9.71;100.00;101807.93;2015489;71;32833;-77
2022/04/09 20:10:54;;;;;;;12.97;12.23;;;;;;;9.49;100.00;101804.58;2007600;70;32830;-72
2022/04/09 20:16:39;;;;;;;12.90;12.10;;;;;;;9.48;100.00;101807.05;2010336;71;32892;-75
2022/04/09 20:22:26;;;;;;;12.97;12.07;;;;;;;9.08;100.00;101810.02;2006223;71;32786;-72
2022/04/09 20:28:10;;;;;;;12.83;12.00;;;;;;;8.87;100.00;101821.00;2006597;71;32822;-74
2022/04/09 20:33:54;;;;;;;12.90;12.10;;;;;;;8.73;100.00;101816.31;1995334;71;32876;-73
2022/04/09 20:39:38;;;;;;;12.50;11.80;;;;;;;8.40;100.00;101825.39;2007609;71;32905;-67
2022/04/09 20:45:24;;;;;;;13.43;12.70;;;;;;;8.39;100.00;101833.40;2006189;71;32939;-76
2022/04/09 20:51:08;;;;;;;12.80;11.90;;;;;;;8.44;100.00;101839.05;2014914;71;33401;-75
2022/04/09 20:56:54;;;;;;;12.70;12.10;;;;;;;8.60;100.00;101846.55;1980105;72;32940;-71
2022/04/09 21:02:39;;;;;;;13.00;12.30;;;;;;;8.61;100.00;101855.70;1997421;71;32765;-76
2022/04/09 21:08:25;;;;;;;13.20;12.60;;;;;;;8.42;100.00;101870.30;2006404;71;33291;-75
2022/04/09 21:14:09;;;;;;;12.00;11.40;;;;;;;8.67;100.00;101865.80;1997098;71;33250;-72
2022/04/09 21:19:54;;;;;;;13.80;12.70;;;;;;;8.78;100.00;101887.05;2018489;71;32936;-77
2022/04/09 21:25:41;;;;;;;11.03;10.33;;;;;;;9.01;100.00;101888.33;1997206;71;32814;-70
2022/04/09 21:31:25;;;;;;;10.97;10.40;;;;;;;9.04;100.00;101895.30;2014700;71;33374;-74
2022/04/09 21:37:11;;;;;;;11.67;10.97;;;;;;;9.08;100.00;101893.16;2014930;71;32811;-76
2022/04/09 21:42:57;;;;;;;11.20;10.40;;;;;;;9.10;100.00;101890.16;2010034;71;33302;-72
2022/04/09 21:48:44;;;;;;;11.00;10.40;;;;;;;9.19;100.00;101884.49;2017274;71;32908;-74
2022/04/09 21:54:29;;;;;;;12.30;11.60;;;;;;;9.06;100.00;101889.81;2013351;71;32937;-74
2022/04/09 22:00:23;;;;;;;11.80;11.00;;;;;;;8.38;100.00;101896.80;2005747;71;32878;-78
2022/04/09 22:06:08;;;;;;;11.10;10.60;;;;;;;8.34;100.00;101899.77;2006418;71;32891;-76
2022/04/09 22:11:53;;;;;;;12.10;11.30;;;;;;;8.57;100.00;101896.06;2005828;71;32896;-79
2022/04/09 22:17:37;;;;;;;12.03;11.20;;;;;;;8.71;100.00;101903.53;1991425;71;32783;-73
2022/04/09 22:23:23;;;;;;;13.80;12.90;;;;;;;8.41;100.00;101896.84;2012395;71;32741;-75
2022/04/09 22:29:07;;;;;;;14.30;13.40;;;;;;;7.88;100.00;101906.16;2008403;70;32768;-72
2022/04/09 22:34:53;;;;;;;12.03;11.33;;;;;;;8.41;100.00;101909.30;1997817;71;33432;-78
2022/04/09 22:40:37;;;;;;;13.37;12.57;;;;;;;8.61;100.00;101909.17;2013694;71;32828;-74
2022/04/09 22:46:23;;;;;;;13.37;12.53;;;;;;;8.51;100.00;101910.36;2005761;71;33414;-72
2022/04/09 22:52:09;;;;;;;14.27;13.37;;;;;;;8.11;100.00;101908.91;1997418;71;32889;-75
2022/04/09 22:57:53;;;;;;;14.17;13.17;;;;;;;8.37;100.00;101908.11;2016709;71;33280;-79
2022/04/09 23:03:37;;;;;;;15.60;14.70;;;;;;;8.31;100.00;101910.45;2013943;71;32895;-74
2022/04/09 23:09:21;;;;;;;16.27;15.13;;;;;;;8.07;100.00;101917.41;2012976;71;32840;-79
2022/04/09 23:15:08;;;;;;;15.67;14.50;;;;;;;8.01;100.00;101917.52;2013307;71;32950;-73
2022/04/09 23:20:52;;;;;;;19.87;18.53;;;;;;;8.27;100.00;101917.53;1991990;71;32776;-75
2022/04/09 23:26:37;;;;;;;18.33;17.20;;;;;;;7.57;100.00;101936.39;2009869;71;33317;-74
2022/04/09 23:32:21;;;;;;;22.70;21.40;;;;;;;7.68;100.00;101935.58;2013854;71;32924;-74
2022/04/09 23:38:05;;;;;;;27.20;25.33;;;;;;;7.06;100.00;101943.10;2003834;71;32906;-73
2022/04/09 23:43:49;;;;;;;28.77;27.03;;;;;;;6.84;100.00;101944.16;2006057;71;32885;-79
2022/04/09 23:49:34;;;;;;;36.57;34.47;;;;;;;6.66;100.00;101953.85;2011096;70;32840;-78
2022/04/09 23:55:18;;;;;;;40.13;37.53;;;;;;;6.25;100.00;101962.83;2009891;71;32906;-75
